sensor_id;sensor_type;location;lat;lon;timestamp;P1;durP1;ratioP1;P2;durP2;ratioP2
47796;SDS011;33558;50.922;14.068;2023-04-06T00:02:12;6.13;;;2.83;;
47796;SDS011;33558;50.922;14.068;2023-04-06T00:04:39;8.33;;;2.50;;
47796;SDS011;33558;50.922;14.068;2023-04-06T00:07:06;7.13;;;2.53;;
47796;SDS011;33558;50.922;14.068;2023-04-06T00:09:32;6.87;;;3.03;;
47796;SDS011;33558;50.922;14.068;2023-04-06T00:11:59;3.20;;;2.00;;
47796;SDS011;33558;50.922;14.068;2023-04-06T00:14:26;4.77;;;2.57;;
47796;SDS011;33558;50.922;14.068;2023-04-06T00:16:52;5.77;;;2.83;;
47796;SDS011;33558;50.922;14.068;2023-04-06T00:19:20;5.77;;;2.70;;
47796;SDS011;33558;50.922;14.068;2023-04-06T00:21:47;7.27;;;2.87;;
47796;SDS011;33558;50.922;14.068;2023-04-06T00:24:14;5.90;;;3.40;;
47796;SDS011;33558;50.922;14.068;2023-04-06T00:26:40;6.53;;;3.13;;
47796;SDS011;33558;50.922;14.068;2023-04-06T00:29:08;4.80;;;3.00;;
47796;SDS011;33558;50.922;14.068;2023-04-06T00:31:34;7.53;;;2.87;;
47796;SDS011;33558;50.922;14.068;2023-04-06T00:34:01;8.47;;;4.17;;
47796;SDS011;33558;50.922;14.068;2023-04-06T00:36:29;5.40;;;2.90;;
47796;SDS011;33558;50.922;14.068;2023-04-06T00:38:56;5.50;;;2.57;;
47796;SDS011;33558;50.922;14.068;2023-04-06T00:41:22;7.77;;;2.80;;
47796;SDS011;33558;50.922;14.068;2023-04-06T00:43:50;7.03;;;3.23;;
47796;SDS011;33558;50.922;14.068;2023-04-06T00:46:18;4.20;;;2.57;;
47796;SDS011;33558;50.922;14.068;2023-04-06T00:48:44;5.27;;;2.63;;
47796;SDS011;33558;50.922;14.068;2023-04-06T00:51:11;7.37;;;2.70;;
47796;SDS011;33558;50.922;14.068;2023-04-06T00:53:39;7.93;;;2.80;;
47796;SDS011;33558;50.922;14.068;2023-04-06T00:56:08;6.13;;;3.10;;
47796;SDS011;33558;50.922;14.068;2023-04-06T00:58:46;5.10;;;2.77;;
47796;SDS011;33558;50.922;14.068;2023-04-06T01:01:14;5.10;;;2.73;;
47796;SDS011;33558;50.922;14.068;2023-04-06T01:03:41;6.10;;;3.07;;
47796;SDS011;33558;50.922;14.068;2023-04-06T01:06:12;7.23;;;3.07;;
47796;SDS011;33558;50.922;14.068;2023-04-06T01:08:42;6.37;;;2.77;;
47796;SDS011;33558;50.922;14.068;2023-04-06T01:11:19;7.07;;;2.80;;
47796;SDS011;33558;50.922;14.068;2023-04-06T01:13:47;7.13;;;2.63;;
47796;SDS011;33558;50.922;14.068;2023-04-06T01:16:35;5.33;;;2.90;;
47796;SDS011;33558;50.922;14.068;2023-04-06T01:19:10;6.65;;;3.47;;
47796;SDS011;33558;50.922;14.068;2023-04-06T01:21:41;4.47;;;2.70;;
47796;SDS011;33558;50.922;14.068;2023-04-06T01:24:18;7.60;;;3.08;;
47796;SDS011;33558;50.922;14.068;2023-04-06T01:26:59;6.67;;;3.20;;
47796;SDS011;33558;50.922;14.068;2023-04-06T01:29:33;6.37;;;2.90;;
47796;SDS011;33558;50.922;14.068;2023-04-06T01:32:03;6.20;;;3.00;;
47796;SDS011;33558;50.922;14.068;2023-04-06T01:34:34;5.93;;;3.33;;
47796;SDS011;33558;50.922;14.068;2023-04-06T01:37:03;4.87;;;2.80;;
47796;SDS011;33558;50.922;14.068;2023-04-06T01:39:32;5.10;;;2.90;;
47796;SDS011;33558;50.922;14.068;2023-04-06T01:42:01;5.43;;;2.57;;
47796;SDS011;33558;50.922;14.068;2023-04-06T01:44:30;5.60;;;2.87;;
47796;SDS011;33558;50.922;14.068;2023-04-06T01:47:06;4.38;;;2.70;;
47796;SDS011;33558;50.922;14.068;2023-04-06T01:49:33;4.13;;;2.93;;
47796;SDS011;33558;50.922;14.068;2023-04-06T01:52:00;5.10;;;3.03;;
47796;SDS011;33558;50.922;14.068;2023-04-06T01:54:27;7.60;;;3.17;;
47796;SDS011;33558;50.922;14.068;2023-04-06T01:57:09;4.87;;;2.73;;
47796;SDS011;33558;50.922;14.068;2023-04-06T01:59:56;7.53;;;2.87;;
47796;SDS011;33558;50.922;14.068;2023-04-06T02:02:38;9.10;;;3.00;;
47796;SDS011;33558;50.922;14.068;2023-04-06T02:05:10;5.03;;;2.63;;
47796;SDS011;33558;50.922;14.068;2023-04-06T02:07:38;5.50;;;2.80;;
47796;SDS011;33558;50.922;14.068;2023-04-06T02:10:10;5.03;;;2.50;;
47796;SDS011;33558;50.922;14.068;2023-04-06T02:12:38;7.57;;;2.70;;
47796;SDS011;33558;50.922;14.068;2023-04-06T02:15:09;5.17;;;2.83;;
47796;SDS011;33558;50.922;14.068;2023-04-06T02:17:38;7.23;;;2.70;;
47796;SDS011;33558;50.922;14.068;2023-04-06T02:20:05;5.23;;;2.77;;
47796;SDS011;33558;50.922;14.068;2023-04-06T02:22:33;5.47;;;2.63;;
47796;SDS011;33558;50.922;14.068;2023-04-06T02:24:59;7.57;;;3.30;;
47796;SDS011;33558;50.922;14.068;2023-04-06T02:27:26;6.60;;;3.10;;
47796;SDS011;33558;50.922;14.068;2023-04-06T02:29:54;5.87;;;2.97;;
47796;SDS011;33558;50.922;14.068;2023-04-06T02:32:21;5.90;;;3.03;;
47796;SDS011;33558;50.922;14.068;2023-04-06T02:34:48;5.40;;;2.60;;
47796;SDS011;33558;50.922;14.068;2023-04-06T02:37:17;4.13;;;2.73;;
47796;SDS011;33558;50.922;14.068;2023-04-06T02:39:44;7.20;;;2.90;;
47796;SDS011;33558;50.922;14.068;2023-04-06T02:42:11;6.97;;;3.10;;
47796;SDS011;33558;50.922;14.068;2023-04-06T02:44:38;5.63;;;3.60;;
47796;SDS011;33558;50.922;14.068;2023-04-06T02:47:06;7.23;;;3.10;;
47796;SDS011;33558;50.922;14.068;2023-04-06T02:49:33;9.07;;;3.40;;
47796;SDS011;33558;50.922;14.068;2023-04-06T02:52:00;5.93;;;3.37;;
47796;SDS011;33558;50.922;14.068;2023-04-06T02:54:31;5.13;;;2.93;;
47796;SDS011;33558;50.922;14.068;2023-04-06T02:56:59;6.60;;;3.50;;
47796;SDS011;33558;50.922;14.068;2023-04-06T02:59:34;8.60;;;3.15;;
47796;SDS011;33558;50.922;14.068;2023-04-06T03:02:17;5.37;;;3.30;;
47796;SDS011;33558;50.922;14.068;2023-04-06T03:04:44;6.70;;;3.50;;
47796;SDS011;33558;50.922;14.068;2023-04-06T03:07:21;6.60;;;3.50;;
47796;SDS011;33558;50.922;14.068;2023-04-06T03:09:48;8.20;;;4.13;;
47796;SDS011;33558;50.922;14.068;2023-04-06T03:12:16;7.37;;;4.40;;
47796;SDS011;33558;50.922;14.068;2023-04-06T03:15:03;8.00;;;4.20;;
47796;SDS011;33558;50.922;14.068;2023-04-06T03:17:32;12.30;;;5.73;;
47796;SDS011;33558;50.922;14.068;2023-04-06T03:20:02;8.97;;;4.27;;
47796;SDS011;33558;50.922;14.068;2023-04-06T03:22:31;9.97;;;4.67;;
47796;SDS011;33558;50.922;14.068;2023-04-06T03:24:58;10.27;;;4.83;;
47796;SDS011;33558;50.922;14.068;2023-04-06T03:27:26;9.83;;;4.83;;
47796;SDS011;33558;50.922;14.068;2023-04-06T03:29:53;9.40;;;4.77;;
47796;SDS011;33558;50.922;14.068;2023-04-06T03:32:26;8.27;;;4.23;;
47796;SDS011;33558;50.922;14.068;2023-04-06T03:34:54;7.00;;;3.50;;
47796;SDS011;33558;50.922;14.068;2023-04-06T03:37:23;6.73;;;2.97;;
47796;SDS011;33558;50.922;14.068;2023-04-06T03:39:53;3.97;;;2.73;;
47796;SDS011;33558;50.922;14.068;2023-04-06T03:42:23;7.47;;;3.57;;
47796;SDS011;33558;50.922;14.068;2023-04-06T03:44:55;5.83;;;3.00;;
47796;SDS011;33558;50.922;14.068;2023-04-06T03:47:22;6.93;;;4.10;;
47796;SDS011;33558;50.922;14.068;2023-04-06T03:49:50;4.40;;;3.10;;
47796;SDS011;33558;50.922;14.068;2023-04-06T03:52:18;8.13;;;3.00;;
47796;SDS011;33558;50.922;14.068;2023-04-06T03:54:45;3.97;;;2.73;;
47796;SDS011;33558;50.922;14.068;2023-04-06T03:57:11;4.70;;;2.40;;
47796;SDS011;33558;50.922;14.068;2023-04-06T03:59:38;6.00;;;2.90;;
47796;SDS011;33558;50.922;14.068;2023-04-06T04:02:05;7.07;;;3.10;;
47796;SDS011;33558;50.922;14.068;2023-04-06T04:04:32;8.97;;;3.77;;
47796;SDS011;33558;50.922;14.068;2023-04-06T04:06:58;6.90;;;3.63;;
47796;SDS011;33558;50.922;14.068;2023-04-06T04:09:26;5.43;;;3.00;;
47796;SDS011;33558;50.922;14.068;2023-04-06T04:11:53;7.17;;;3.20;;
47796;SDS011;33558;50.922;14.068;2023-04-06T04:14:20;5.57;;;3.53;;
47796;SDS011;33558;50.922;14.068;2023-04-06T04:16:47;6.03;;;3.20;;
47796;SDS011;33558;50.922;14.068;2023-04-06T04:19:14;6.23;;;3.43;;
47796;SDS011;33558;50.922;14.068;2023-04-06T04:21:44;6.37;;;3.57;;
47796;SDS011;33558;50.922;14.068;2023-04-06T04:24:14;7.00;;;3.50;;
47796;SDS011;33558;50.922;14.068;2023-04-06T04:26:42;9.33;;;3.37;;
47796;SDS011;33558;50.922;14.068;2023-04-06T04:29:10;7.03;;;3.40;;
47796;SDS011;33558;50.922;14.068;2023-04-06T04:31:37;6.27;;;3.77;;
47796;SDS011;33558;50.922;14.068;2023-04-06T04:34:11;8.30;;;4.80;;
47796;SDS011;33558;50.922;14.068;2023-04-06T04:36:37;8.67;;;5.23;;
47796;SDS011;33558;50.922;14.068;2023-04-06T04:39:08;7.57;;;4.10;;
47796;SDS011;33558;50.922;14.068;2023-04-06T04:41:40;7.40;;;4.23;;
47796;SDS011;33558;50.922;14.068;2023-04-06T04:44:10;10.60;;;4.30;;
47796;SDS011;33558;50.922;14.068;2023-04-06T04:46:37;7.20;;;4.50;;
47796;SDS011;33558;50.922;14.068;2023-04-06T04:49:05;8.93;;;4.07;;
47796;SDS011;33558;50.922;14.068;2023-04-06T04:51:32;9.67;;;5.17;;
47796;SDS011;33558;50.922;14.068;2023-04-06T04:54:25;7.87;;;4.33;;
47796;SDS011;33558;50.922;14.068;2023-04-06T04:56:52;11.77;;;6.00;;
47796;SDS011;33558;50.922;14.068;2023-04-06T04:59:26;8.67;;;4.80;;
47796;SDS011;33558;50.922;14.068;2023-04-06T05:02:00;8.45;;;4.43;;
47796;SDS011;33558;50.922;14.068;2023-04-06T05:04:36;9.77;;;5.27;;
47796;SDS011;33558;50.922;14.068;2023-04-06T05:07:06;9.40;;;5.00;;
47796;SDS011;33558;50.922;14.068;2023-04-06T05:09:35;8.57;;;5.37;;
47796;SDS011;33558;50.922;14.068;2023-04-06T05:12:02;7.30;;;4.57;;
47796;SDS011;33558;50.922;14.068;2023-04-06T05:14:35;9.23;;;5.50;;
47796;SDS011;33558;50.922;14.068;2023-04-06T05:17:06;9.27;;;5.63;;
47796;SDS011;33558;50.922;14.068;2023-04-06T05:19:33;8.40;;;4.57;;
47796;SDS011;33558;50.922;14.068;2023-04-06T05:22:00;7.70;;;4.57;;
47796;SDS011;33558;50.922;14.068;2023-04-06T05:24:33;7.07;;;4.27;;
47796;SDS011;33558;50.922;14.068;2023-04-06T05:27:02;10.13;;;4.37;;
47796;SDS011;33558;50.922;14.068;2023-04-06T05:29:30;9.80;;;4.80;;
47796;SDS011;33558;50.922;14.068;2023-04-06T05:31:58;9.73;;;5.20;;
47796;SDS011;33558;50.922;14.068;2023-04-06T05:34:25;8.73;;;4.80;;
47796;SDS011;33558;50.922;14.068;2023-04-06T05:36:53;9.17;;;5.37;;
47796;SDS011;33558;50.922;14.068;2023-04-06T05:39:23;6.83;;;4.37;;
47796;SDS011;33558;50.922;14.068;2023-04-06T05:41:52;7.37;;;4.43;;
47796;SDS011;33558;50.922;14.068;2023-04-06T05:44:30;8.90;;;4.53;;
47796;SDS011;33558;50.922;14.068;2023-04-06T05:47:09;7.73;;;5.17;;
47796;SDS011;33558;50.922;14.068;2023-04-06T05:49:37;8.17;;;5.17;;
47796;SDS011;33558;50.922;14.068;2023-04-06T05:52:09;8.67;;;4.93;;
47796;SDS011;33558;50.922;14.068;2023-04-06T05:54:36;8.90;;;5.33;;
47796;SDS011;33558;50.922;14.068;2023-04-06T05:57:03;10.80;;;5.77;;
47796;SDS011;33558;50.922;14.068;2023-04-06T05:59:30;8.83;;;5.47;;
47796;SDS011;33558;50.922;14.068;2023-04-06T06:01:57;8.83;;;5.20;;
47796;SDS011;33558;50.922;14.068;2023-04-06T06:04:25;6.77;;;4.67;;
47796;SDS011;33558;50.922;14.068;2023-04-06T06:06:53;10.57;;;6.47;;
47796;SDS011;33558;50.922;14.068;2023-04-06T06:09:29;11.23;;;6.63;;
47796;SDS011;33558;50.922;14.068;2023-04-06T06:12:22;9.37;;;5.90;;
47796;SDS011;33558;50.922;14.068;2023-04-06T06:14:49;9.80;;;6.10;;
47796;SDS011;33558;50.922;14.068;2023-04-06T06:17:17;9.87;;;6.47;;
47796;SDS011;33558;50.922;14.068;2023-04-06T06:19:47;9.40;;;5.80;;
47796;SDS011;33558;50.922;14.068;2023-04-06T06:22:15;11.37;;;5.77;;
47796;SDS011;33558;50.922;14.068;2023-04-06T06:24:44;11.90;;;6.50;;
47796;SDS011;33558;50.922;14.068;2023-04-06T06:27:12;10.37;;;6.23;;
47796;SDS011;33558;50.922;14.068;2023-04-06T06:29:38;10.47;;;7.27;;
47796;SDS011;33558;50.922;14.068;2023-04-06T06:32:05;11.43;;;6.80;;
47796;SDS011;33558;50.922;14.068;2023-04-06T06:34:35;12.03;;;7.67;;
47796;SDS011;33558;50.922;14.068;2023-04-06T06:37:05;13.97;;;6.93;;
47796;SDS011;33558;50.922;14.068;2023-04-06T06:39:32;10.73;;;6.33;;
47796;SDS011;33558;50.922;14.068;2023-04-06T06:41:59;14.20;;;7.80;;
47796;SDS011;33558;50.922;14.068;2023-04-06T06:44:43;11.30;;;7.27;;
47796;SDS011;33558;50.922;14.068;2023-04-06T06:47:10;12.73;;;7.33;;
47796;SDS011;33558;50.922;14.068;2023-04-06T06:49:37;11.10;;;6.53;;
47796;SDS011;33558;50.922;14.068;2023-04-06T06:52:05;9.70;;;6.40;;
47796;SDS011;33558;50.922;14.068;2023-04-06T06:54:32;10.73;;;6.73;;
47796;SDS011;33558;50.922;14.068;2023-04-06T06:56:58;12.17;;;6.20;;
47796;SDS011;33558;50.922;14.068;2023-04-06T06:59:25;9.67;;;6.97;;
47796;SDS011;33558;50.922;14.068;2023-04-06T07:01:52;10.57;;;6.33;;
47796;SDS011;33558;50.922;14.068;2023-04-06T07:04:19;13.20;;;7.20;;
47796;SDS011;33558;50.922;14.068;2023-04-06T07:06:46;11.07;;;6.63;;
47796;SDS011;33558;50.922;14.068;2023-04-06T07:09:14;11.53;;;6.27;;
47796;SDS011;33558;50.922;14.068;2023-04-06T07:11:40;14.47;;;7.13;;
47796;SDS011;33558;50.922;14.068;2023-04-06T07:14:07;10.67;;;6.80;;
47796;SDS011;33558;50.922;14.068;2023-04-06T07:16:34;10.73;;;6.53;;
47796;SDS011;33558;50.922;14.068;2023-04-06T07:19:00;11.33;;;7.03;;
47796;SDS011;33558;50.922;14.068;2023-04-06T07:21:27;9.53;;;6.20;;
47796;SDS011;33558;50.922;14.068;2023-04-06T07:23:55;7.90;;;5.13;;
47796;SDS011;33558;50.922;14.068;2023-04-06T07:26:23;9.30;;;6.10;;
47796;SDS011;33558;50.922;14.068;2023-04-06T07:28:49;9.87;;;5.93;;
47796;SDS011;33558;50.922;14.068;2023-04-06T07:31:17;10.20;;;6.60;;
47796;SDS011;33558;50.922;14.068;2023-04-06T07:33:44;11.77;;;7.40;;
47796;SDS011;33558;50.922;14.068;2023-04-06T07:36:10;10.70;;;6.10;;
47796;SDS011;33558;50.922;14.068;2023-04-06T07:38:37;8.63;;;5.67;;
47796;SDS011;33558;50.922;14.068;2023-04-06T07:41:04;11.33;;;6.07;;
47796;SDS011;33558;50.922;14.068;2023-04-06T07:43:32;9.43;;;6.33;;
47796;SDS011;33558;50.922;14.068;2023-04-06T07:45:59;9.23;;;5.60;;
47796;SDS011;33558;50.922;14.068;2023-04-06T07:48:27;10.63;;;5.70;;
47796;SDS011;33558;50.922;14.068;2023-04-06T07:51:00;11.30;;;6.07;;
47796;SDS011;33558;50.922;14.068;2023-04-06T07:53:27;14.90;;;6.27;;
47796;SDS011;33558;50.922;14.068;2023-04-06T07:55:54;9.57;;;6.23;;
47796;SDS011;33558;50.922;14.068;2023-04-06T07:58:21;10.67;;;6.20;;
47796;SDS011;33558;50.922;14.068;2023-04-06T08:00:49;11.83;;;6.23;;
47796;SDS011;33558;50.922;14.068;2023-04-06T08:03:17;10.33;;;6.13;;
47796;SDS011;33558;50.922;14.068;2023-04-06T08:05:45;12.10;;;6.07;;
47796;SDS011;33558;50.922;14.068;2023-04-06T08:08:12;10.30;;;5.50;;
47796;SDS011;33558;50.922;14.068;2023-04-06T08:10:39;9.40;;;6.17;;
47796;SDS011;33558;50.922;14.068;2023-04-06T08:13:06;9.30;;;5.50;;
47796;SDS011;33558;50.922;14.068;2023-04-06T08:15:33;10.00;;;5.87;;
47796;SDS011;33558;50.922;14.068;2023-04-06T08:18:01;15.87;;;6.20;;
47796;SDS011;33558;50.922;14.068;2023-04-06T08:20:28;13.87;;;6.80;;
47796;SDS011;33558;50.922;14.068;2023-04-06T08:22:55;11.43;;;5.90;;
47796;SDS011;33558;50.922;14.068;2023-04-06T08:25:22;9.73;;;5.47;;
47796;SDS011;33558;50.922;14.068;2023-04-06T08:27:49;10.93;;;5.67;;
47796;SDS011;33558;50.922;14.068;2023-04-06T08:30:16;9.57;;;5.13;;
47796;SDS011;33558;50.922;14.068;2023-04-06T08:32:44;8.23;;;4.87;;
47796;SDS011;33558;50.922;14.068;2023-04-06T08:35:12;6.93;;;4.20;;
47796;SDS011;33558;50.922;14.068;2023-04-06T08:37:39;8.03;;;4.67;;
47796;SDS011;33558;50.922;14.068;2023-04-06T08:40:06;4.77;;;3.00;;
47796;SDS011;33558;50.922;14.068;2023-04-06T08:42:33;7.20;;;2.60;;
47796;SDS011;33558;50.922;14.068;2023-04-06T08:45:06;4.77;;;2.77;;
47796;SDS011;33558;50.922;14.068;2023-04-06T08:47:34;5.20;;;3.30;;
47796;SDS011;33558;50.922;14.068;2023-04-06T08:50:02;6.13;;;2.83;;
47796;SDS011;33558;50.922;14.068;2023-04-06T08:52:31;6.23;;;3.10;;
47796;SDS011;33558;50.922;14.068;2023-04-06T08:54:58;5.27;;;3.00;;
47796;SDS011;33558;50.922;14.068;2023-04-06T08:57:25;5.23;;;2.80;;
47796;SDS011;33558;50.922;14.068;2023-04-06T08:59:53;5.80;;;2.97;;
47796;SDS011;33558;50.922;14.068;2023-04-06T09:02:20;6.07;;;2.70;;
47796;SDS011;33558;50.922;14.068;2023-04-06T09:04:48;4.77;;;3.00;;
47796;SDS011;33558;50.922;14.068;2023-04-06T09:07:15;4.03;;;2.30;;
47796;SDS011;33558;50.922;14.068;2023-04-06T09:09:44;4.17;;;2.43;;
47796;SDS011;33558;50.922;14.068;2023-04-06T09:12:21;6.87;;;2.07;;
47796;SDS011;33558;50.922;14.068;2023-04-06T09:14:49;4.05;;;2.40;;
47796;SDS011;33558;50.922;14.068;2023-04-06T09:17:19;4.73;;;2.37;;
47796;SDS011;33558;50.922;14.068;2023-04-06T09:19:47;3.73;;;2.30;;
47796;SDS011;33558;50.922;14.068;2023-04-06T09:22:14;5.40;;;2.17;;
47796;SDS011;33558;50.922;14.068;2023-04-06T09:24:41;3.30;;;2.20;;
47796;SDS011;33558;50.922;14.068;2023-04-06T09:27:10;2.93;;;1.83;;
47796;SDS011;33558;50.922;14.068;2023-04-06T09:29:37;3.00;;;2.00;;
47796;SDS011;33558;50.922;14.068;2023-04-06T09:32:04;3.70;;;2.20;;
47796;SDS011;33558;50.922;14.068;2023-04-06T09:34:32;5.90;;;2.57;;
47796;SDS011;33558;50.922;14.068;2023-04-06T09:39:40;5.47;;;2.47;;
47796;SDS011;33558;50.922;14.068;2023-04-06T09:42:08;4.30;;;2.00;;
47796;SDS011;33558;50.922;14.068;2023-04-06T09:44:35;4.10;;;2.20;;
47796;SDS011;33558;50.922;14.068;2023-04-06T09:47:02;3.43;;;2.47;;
47796;SDS011;33558;50.922;14.068;2023-04-06T09:49:32;4.87;;;2.40;;
47796;SDS011;33558;50.922;14.068;2023-04-06T09:52:00;3.27;;;2.13;;
47796;SDS011;33558;50.922;14.068;2023-04-06T09:54:29;4.00;;;2.57;;
47796;SDS011;33558;50.922;14.068;2023-04-06T09:56:58;6.37;;;2.80;;
47796;SDS011;33558;50.922;14.068;2023-04-06T09:59:35;3.67;;;2.83;;
47796;SDS011;33558;50.922;14.068;2023-04-06T10:02:07;3.73;;;2.73;;
47796;SDS011;33558;50.922;14.068;2023-04-06T10:04:39;4.43;;;2.57;;
47796;SDS011;33558;50.922;14.068;2023-04-06T10:07:09;3.70;;;2.57;;
47796;SDS011;33558;50.922;14.068;2023-04-06T10:09:38;4.40;;;2.17;;
47796;SDS011;33558;50.922;14.068;2023-04-06T10:12:05;3.73;;;2.40;;
47796;SDS011;33558;50.922;14.068;2023-04-06T10:14:34;4.17;;;2.80;;
47796;SDS011;33558;50.922;14.068;2023-04-06T10:17:02;4.57;;;2.73;;
47796;SDS011;33558;50.922;14.068;2023-04-06T10:19:30;3.87;;;2.90;;
47796;SDS011;33558;50.922;14.068;2023-04-06T10:22:01;4.17;;;2.60;;
47796;SDS011;33558;50.922;14.068;2023-04-06T10:24:29;4.17;;;2.67;;
47796;SDS011;33558;50.922;14.068;2023-04-06T10:26:59;5.50;;;2.70;;
47796;SDS011;33558;50.922;14.068;2023-04-06T10:29:27;5.60;;;3.00;;
47796;SDS011;33558;50.922;14.068;2023-04-06T10:31:55;5.07;;;2.80;;
47796;SDS011;33558;50.922;14.068;2023-04-06T10:34:22;4.27;;;2.80;;
47796;SDS011;33558;50.922;14.068;2023-04-06T10:36:49;3.87;;;2.40;;
47796;SDS011;33558;50.922;14.068;2023-04-06T10:39:15;3.50;;;2.20;;
47796;SDS011;33558;50.922;14.068;2023-04-06T10:41:51;3.55;;;2.50;;
47796;SDS011;33558;50.922;14.068;2023-04-06T10:44:19;4.43;;;2.50;;
47796;SDS011;33558;50.922;14.068;2023-04-06T10:46:52;5.10;;;2.87;;
47796;SDS011;33558;50.922;14.068;2023-04-06T10:49:21;3.63;;;2.60;;
47796;SDS011;33558;50.922;14.068;2023-04-06T10:51:50;4.37;;;2.80;;
47796;SDS011;33558;50.922;14.068;2023-04-06T10:54:19;3.40;;;2.50;;
47796;SDS011;33558;50.922;14.068;2023-04-06T10:56:47;3.23;;;2.57;;
47796;SDS011;33558;50.922;14.068;2023-04-06T10:59:18;4.50;;;2.70;;
47796;SDS011;33558;50.922;14.068;2023-04-06T11:01:46;3.77;;;2.47;;
47796;SDS011;33558;50.922;14.068;2023-04-06T11:04:15;3.93;;;2.50;;
47796;SDS011;33558;50.922;14.068;2023-04-06T11:06:45;3.63;;;2.40;;
47796;SDS011;33558;50.922;14.068;2023-04-06T11:09:22;3.13;;;2.43;;
47796;SDS011;33558;50.922;14.068;2023-04-06T11:11:50;4.40;;;2.27;;
47796;SDS011;33558;50.922;14.068;2023-04-06T11:14:16;3.93;;;2.57;;
47796;SDS011;33558;50.922;14.068;2023-04-06T11:16:45;3.93;;;2.87;;
47796;SDS011;33558;50.922;14.068;2023-04-06T11:19:13;3.90;;;2.80;;
47796;SDS011;33558;50.922;14.068;2023-04-06T11:21:41;3.63;;;2.70;;
47796;SDS011;33558;50.922;14.068;2023-04-06T11:24:10;4.10;;;2.73;;
47796;SDS011;33558;50.922;14.068;2023-04-06T11:26:38;4.33;;;2.83;;
47796;SDS011;33558;50.922;14.068;2023-04-06T11:29:06;4.03;;;2.80;;
47796;SDS011;33558;50.922;14.068;2023-04-06T11:31:37;5.27;;;3.20;;
47796;SDS011;33558;50.922;14.068;2023-04-06T11:34:08;3.90;;;2.87;;
47796;SDS011;33558;50.922;14.068;2023-04-06T11:36:36;5.30;;;2.80;;
47796;SDS011;33558;50.922;14.068;2023-04-06T11:39:02;5.27;;;3.00;;
47796;SDS011;33558;50.922;14.068;2023-04-06T11:41:31;4.73;;;3.07;;
47796;SDS011;33558;50.922;14.068;2023-04-06T11:44:00;5.23;;;3.00;;
47796;SDS011;33558;50.922;14.068;2023-04-06T11:46:27;3.07;;;2.37;;
47796;SDS011;33558;50.922;14.068;2023-04-06T11:48:57;4.57;;;2.67;;
47796;SDS011;33558;50.922;14.068;2023-04-06T11:51:24;3.03;;;2.20;;
47796;SDS011;33558;50.922;14.068;2023-04-06T11:53:51;4.33;;;2.90;;
47796;SDS011;33558;50.922;14.068;2023-04-06T11:56:25;3.47;;;2.30;;
47796;SDS011;33558;50.922;14.068;2023-04-06T11:58:56;5.50;;;2.92;;
47796;SDS011;33558;50.922;14.068;2023-04-06T12:01:24;2.97;;;2.20;;
47796;SDS011;33558;50.922;14.068;2023-04-06T12:03:51;3.07;;;2.27;;
47796;SDS011;33558;50.922;14.068;2023-04-06T12:06:18;3.80;;;2.50;;
47796;SDS011;33558;50.922;14.068;2023-04-06T12:08:45;3.27;;;2.50;;
47796;SDS011;33558;50.922;14.068;2023-04-06T12:11:11;3.60;;;2.07;;
47796;SDS011;33558;50.922;14.068;2023-04-06T12:13:38;4.00;;;2.60;;
47796;SDS011;33558;50.922;14.068;2023-04-06T12:16:06;6.17;;;2.63;;
47796;SDS011;33558;50.922;14.068;2023-04-06T12:18:33;3.50;;;2.53;;
47796;SDS011;33558;50.922;14.068;2023-04-06T12:21:00;3.37;;;2.47;;
47796;SDS011;33558;50.922;14.068;2023-04-06T12:23:26;3.10;;;2.40;;
47796;SDS011;33558;50.922;14.068;2023-04-06T12:25:53;4.77;;;3.13;;
47796;SDS011;33558;50.922;14.068;2023-04-06T12:28:20;3.60;;;2.43;;
47796;SDS011;33558;50.922;14.068;2023-04-06T12:30:49;3.67;;;2.57;;
47796;SDS011;33558;50.922;14.068;2023-04-06T12:33:18;5.50;;;2.43;;
47796;SDS011;33558;50.922;14.068;2023-04-06T12:35:44;6.00;;;2.67;;
47796;SDS011;33558;50.922;14.068;2023-04-06T12:38:11;3.20;;;2.80;;
47796;SDS011;33558;50.922;14.068;2023-04-06T12:40:38;3.90;;;2.57;;
47796;SDS011;33558;50.922;14.068;2023-04-06T12:43:05;3.97;;;2.97;;
47796;SDS011;33558;50.922;14.068;2023-04-06T12:45:31;5.00;;;3.13;;
47796;SDS011;33558;50.922;14.068;2023-04-06T12:47:58;4.10;;;2.47;;
47796;SDS011;33558;50.922;14.068;2023-04-06T12:50:26;4.73;;;2.80;;
47796;SDS011;33558;50.922;14.068;2023-04-06T12:52:53;3.80;;;2.50;;
47796;SDS011;33558;50.922;14.068;2023-04-06T12:55:20;3.83;;;2.60;;
47796;SDS011;33558;50.922;14.068;2023-04-06T12:57:47;3.45;;;2.90;;
47796;SDS011;33558;50.922;14.068;2023-04-06T13:00:14;2.83;;;2.28;;
47796;SDS011;33558;50.922;14.068;2023-04-06T13:02:41;2.83;;;1.95;;
47796;SDS011;33558;50.922;14.068;2023-04-06T13:05:11;2.97;;;1.92;;
47796;SDS011;33558;50.922;14.068;2023-04-06T13:07:40;3.47;;;2.13;;
47796;SDS011;33558;50.922;14.068;2023-04-06T13:10:07;3.08;;;2.17;;
47796;SDS011;33558;50.922;14.068;2023-04-06T13:12:34;4.03;;;2.60;;
47796;SDS011;33558;50.922;14.068;2023-04-06T13:15:02;2.45;;;1.98;;
47796;SDS011;33558;50.922;14.068;2023-04-06T13:17:29;3.30;;;2.28;;
47796;SDS011;33558;50.922;14.068;2023-04-06T13:19:56;3.63;;;2.50;;
47796;SDS011;33558;50.922;14.068;2023-04-06T13:22:23;4.00;;;2.47;;
47796;SDS011;33558;50.922;14.068;2023-04-06T13:24:51;5.05;;;2.58;;
47796;SDS011;33558;50.922;14.068;2023-04-06T13:27:17;4.60;;;2.60;;
47796;SDS011;33558;50.922;14.068;2023-04-06T13:29:44;2.95;;;2.13;;
47796;SDS011;33558;50.922;14.068;2023-04-06T13:32:11;4.35;;;2.75;;
47796;SDS011;33558;50.922;14.068;2023-04-06T13:34:37;4.78;;;2.20;;
47796;SDS011;33558;50.922;14.068;2023-04-06T13:37:05;3.88;;;2.78;;
47796;SDS011;33558;50.922;14.068;2023-04-06T13:39:32;4.30;;;2.80;;
47796;SDS011;33558;50.922;14.068;2023-04-06T13:42:00;3.53;;;2.72;;
47796;SDS011;33558;50.922;14.068;2023-04-06T13:44:28;3.45;;;2.40;;
47796;SDS011;33558;50.922;14.068;2023-04-06T13:46:54;3.38;;;2.83;;
47796;SDS011;33558;50.922;14.068;2023-04-06T13:49:23;3.30;;;2.38;;
47796;SDS011;33558;50.922;14.068;2023-04-06T13:51:50;3.90;;;2.60;;
47796;SDS011;33558;50.922;14.068;2023-04-06T13:54:16;3.72;;;2.50;;
47796;SDS011;33558;50.922;14.068;2023-04-06T13:56:43;2.78;;;2.53;;
47796;SDS011;33558;50.922;14.068;2023-04-06T13:59:11;3.25;;;2.45;;
47796;SDS011;33558;50.922;14.068;2023-04-06T14:01:38;3.97;;;2.30;;
47796;SDS011;33558;50.922;14.068;2023-04-06T14:04:04;3.67;;;2.70;;
47796;SDS011;33558;50.922;14.068;2023-04-06T14:06:31;2.67;;;2.35;;
47796;SDS011;33558;50.922;14.068;2023-04-06T14:08:58;4.35;;;3.08;;
47796;SDS011;33558;50.922;14.068;2023-04-06T14:11:25;5.18;;;3.28;;
47796;SDS011;33558;50.922;14.068;2023-04-06T14:13:52;4.35;;;2.83;;
47796;SDS011;33558;50.922;14.068;2023-04-06T14:16:20;4.57;;;2.88;;
47796;SDS011;33558;50.922;14.068;2023-04-06T14:18:48;4.45;;;2.92;;
47796;SDS011;33558;50.922;14.068;2023-04-06T14:21:14;3.00;;;2.50;;
47796;SDS011;33558;50.922;14.068;2023-04-06T14:23:41;2.92;;;2.40;;
47796;SDS011;33558;50.922;14.068;2023-04-06T14:26:08;3.38;;;2.13;;
47796;SDS011;33558;50.922;14.068;2023-04-06T14:28:35;4.30;;;2.40;;
47796;SDS011;33558;50.922;14.068;2023-04-06T14:31:02;2.92;;;2.25;;
47796;SDS011;33558;50.922;14.068;2023-04-06T14:33:38;4.13;;;2.50;;
47796;SDS011;33558;50.922;14.068;2023-04-06T14:36:05;3.55;;;2.10;;
47796;SDS011;33558;50.922;14.068;2023-04-06T14:38:32;3.92;;;2.47;;
47796;SDS011;33558;50.922;14.068;2023-04-06T14:40:59;2.72;;;2.15;;
47796;SDS011;33558;50.922;14.068;2023-04-06T14:43:25;4.97;;;2.70;;
47796;SDS011;33558;50.922;14.068;2023-04-06T14:45:52;3.28;;;2.45;;